Time;durP1;ratioP1;P1;durP2;ratioP2;P2;SDS_P1;SDS_P2;PMS_P1;PMS_P2;Temp;Humidity;BMP_temperature;BMP_pressure;BME280_temperature;BME280_humidity;BME280_pressure;Samples;Min_cycle;Max_cycle;Signal;HPM_P1;HPM_P2
2021/12/01 00:01:34;;;;;;;2.40;1.15;;;9.10;99.90;;;;;;5007624;28;20593;-70
2021/12/01 00:03:59;;;;;;;3.83;0.98;;;9.20;99.90;;;;;;5011641;28;20041;-69
2021/12/01 00:06:25;;;;;;;2.38;0.90;;;9.10;99.90;;;;;;5006038;28;20037;-70
2021/12/01 00:08:50;;;;;;;2.13;1.10;;;9.10;99.90;;;;;;5005686;28;20517;-70
2021/12/01 00:11:16;;;;;;;2.00;0.80;;;9.10;99.90;;;;;;5012252;28;20034;-70
2021/12/01 00:13:42;;;;;;;2.28;0.82;;;9.10;99.90;;;;;;5002620;28;20057;-70
2021/12/01 00:16:08;;;;;;;2.00;0.95;;;9.10;99.90;;;;;;4989741;28;20041;-70
2021/12/01 00:18:34;;;;;;;1.27;0.75;;;9.10;99.90;;;;;;5010337;28;20021;-70
2021/12/01 00:21:00;;;;;;;2.90;1.05;;;9.10;99.90;;;;;;4995308;28;20038;-70
2021/12/01 00:23:26;;;;;;;0.75;0.68;;;9.00;99.90;;;;;;5009628;28;20031;-70
2021/12/01 00:25:53;;;;;;;2.08;0.90;;;9.10;99.90;;;;;;5008927;28;20474;-70
2021/12/01 00:28:19;;;;;;;2.13;1.05;;;9.00;99.90;;;;;;5008992;28;20033;-70
2021/12/01 00:30:46;;;;;;;2.13;1.20;;;9.10;99.90;;;;;;5000530;28;20066;-70
2021/12/01 00:33:14;;;;;;;1.33;0.90;;;9.00;99.90;;;;;;4989931;28;20038;-70
2021/12/01 00:35:40;;;;;;;1.20;0.73;;;9.00;99.90;;;;;;5011200;28;20426;-70
2021/12/01 00:38:05;;;;;;;1.55;0.95;;;9.00;99.90;;;;;;5006559;28;20021;-70
2021/12/01 00:40:31;;;;;;;2.17;0.88;;;9.00;99.90;;;;;;5002024;28;20073;-70
2021/12/01 00:42:57;;;;;;;3.75;1.27;;;9.00;99.90;;;;;;5000560;28;20452;-70
2021/12/01 00:45:25;;;;;;;3.50;1.23;;;8.90;99.90;;;;;;5009634;28;20035;-70
2021/12/01 00:47:52;;;;;;;4.30;1.50;;;8.90;99.90;;;;;;5000447;28;20018;-70
2021/12/01 00:50:29;;;;;;;1.60;0.82;;;8.90;99.90;;;;;;5011545;28;20026;-70
2021/12/01 00:52:59;;;;;;;2.50;1.08;;;8.90;99.90;;;;;;5012188;28;20020;-70
2021/12/01 00:55:24;;;;;;;2.78;1.25;;;8.90;99.90;;;;;;5009687;28;20021;-70
2021/12/01 00:57:51;;;;;;;2.65;1.10;;;8.90;99.90;;;;;;5001885;28;20491;-70
2021/12/01 01:00:17;;;;;;;4.45;1.40;;;8.90;99.90;;;;;;5001823;28;20026;-70
2021/12/01 01:02:43;;;;;;;2.30;1.15;;;8.80;99.90;;;;;;5000103;28;20510;-69
2021/12/01 01:05:09;;;;;;;1.45;0.80;;;8.80;99.90;;;;;;5000268;28;20029;-69
2021/12/01 01:07:35;;;;;;;2.72;1.25;;;8.80;99.90;;;;;;5006656;28;20038;-69
2021/12/01 01:10:17;;;;;;;4.72;1.38;;;8.90;99.90;;;;;;5009848;28;20433;-69
2021/12/01 01:18:13;;;;;;;3.80;1.80;;;8.90;99.90;;;;;;5004120;28;20104;-69
2021/12/01 01:20:39;;;;;;;2.00;1.20;;;8.90;99.90;;;;;;4997441;28;20034;-69
2021/12/01 01:23:04;;;;;;;2.83;1.25;;;8.90;99.90;;;;;;5007452;28;20477;-70
2021/12/01 01:25:30;;;;;;;7.15;2.10;;;8.90;99.90;;;;;;5003711;28;20028;-70
2021/12/01 01:27:56;;;;;;;2.03;1.17;;;8.80;99.90;;;;;;5000114;28;20400;-69
2021/12/01 01:30:22;;;;;;;5.03;1.60;;;8.90;99.90;;;;;;5003387;28;20034;-71
2021/12/01 01:32:48;;;;;;;3.30;1.55;;;8.80;99.90;;;;;;5009611;28;20470;-69
2021/12/01 01:35:13;;;;;;;4.60;1.80;;;8.80;99.90;;;;;;5004002;28;20032;-70
2021/12/01 01:37:40;;;;;;;5.05;1.48;;;8.80;99.90;;;;;;5003992;28;20113;-69
2021/12/01 01:40:07;;;;;;;2.42;1.23;;;8.80;99.90;;;;;;5015115;28;20042;-69
2021/12/01 01:42:32;;;;;;;5.70;1.40;;;8.90;99.90;;;;;;5002459;28;20018;-69
2021/12/01 01:44:58;;;;;;;4.40;1.77;;;8.70;99.90;;;;;;5003140;28;20025;-69
2021/12/01 01:47:24;;;;;;;3.47;1.25;;;8.90;99.90;;;;;;5005694;28;20030;-69
2021/12/01 01:50:00;;;;;;;4.10;1.58;;;8.90;99.90;;;;;;5002558;28;20506;-69
2021/12/01 01:52:27;;;;;;;0.93;0.80;;;8.90;99.90;;;;;;5001138;28;20116;-69
2021/12/01 01:54:53;;;;;;;3.58;1.50;;;8.90;99.90;;;;;;5002408;28;20069;-69
2021/12/01 01:57:20;;;;;;;2.42;1.20;;;8.90;99.90;;;;;;5003853;28;20114;-69
2021/12/01 01:59:45;;;;;;;3.45;1.42;;;8.80;99.90;;;;;;5011012;28;20034;-69
2021/12/01 02:02:11;;;;;;;1.25;0.95;;;8.80;99.90;;;;;;5001972;28;20465;-69
2021/12/01 02:04:37;;;;;;;2.78;1.25;;;8.80;99.90;;;;;;5001952;28;20105;-69
2021/12/01 02:07:04;;;;;;;5.82;1.60;;;8.90;99.90;;;;;;5007338;28;20486;-69
2021/12/01 02:09:30;;;;;;;3.80;1.45;;;8.80;99.90;;;;;;5006320;28;20022;-69
2021/12/01 02:11:58;;;;;;;3.25;1.30;;;8.90;99.90;;;;;;5008298;28;20544;-69
2021/12/01 02:14:25;;;;;;;4.15;1.63;;;8.80;99.90;;;;;;5003099;28;20022;-69
2021/12/01 02:16:51;;;;;;;2.20;1.27;;;8.80;99.90;;;;;;5010318;28;20021;-69
2021/12/01 02:19:17;;;;;;;4.47;1.25;;;8.80;99.90;;;;;;5005517;28;20030;-69
2021/12/01 02:21:43;;;;;;;3.97;1.25;;;8.80;99.90;;;;;;5004185;28;20026;-69
2021/12/01 02:24:11;;;;;;;1.00;0.80;;;8.80;99.90;;;;;;5012298;28;20053;-69
2021/12/01 02:26:44;;;;;;;1.77;0.95;;;8.80;99.90;;;;;;5005999;28;20037;-69
2021/12/01 02:29:13;;;;;;;2.88;1.35;;;8.90;99.90;;;;;;5012051;28;20022;-68
2021/12/01 02:31:40;;;;;;;2.92;1.25;;;8.80;99.90;;;;;;5000490;28;20030;-68
2021/12/01 02:34:13;;;;;;;10.77;1.23;;;8.80;99.90;;;;;;5007554;28;20035;-68
2021/12/01 02:36:41;;;;;;;4.13;1.52;;;8.90;99.90;;;;;;5009562;28;20029;-68
2021/12/01 02:39:09;;;;;;;3.85;1.50;;;8.80;99.90;;;;;;5006649;28;20270;-69
2021/12/01 02:41:36;;;;;;;3.78;1.40;;;8.80;99.90;;;;;;5006461;28;20026;-69
2021/12/01 02:44:04;;;;;;;2.95;1.30;;;8.80;99.90;;;;;;5003889;28;20081;-69
2021/12/01 02:46:30;;;;;;;1.67;0.95;;;8.80;99.90;;;;;;5018556;28;20028;-68
2021/12/01 02:48:57;;;;;;;4.38;1.55;;;8.80;99.90;;;;;;5017752;28;20452;-69
2021/12/01 02:51:27;;;;;;;3.67;1.10;;;8.90;99.90;;;;;;5007831;28;20022;-68
2021/12/01 02:53:53;;;;;;;;;;;8.80;99.90;;;;;;5017704;28;20097;-68
2021/12/01 02:56:22;;;;;;;2.67;1.08;;;8.80;99.90;;;;;;5006943;28;20414;-68
2021/12/01 02:58:48;;;;;;;3.47;1.40;;;8.80;99.90;;;;;;5016671;28;20389;-69
2021/12/01 03:01:20;;;;;;;5.13;1.85;;;8.80;99.90;;;;;;5011880;28;20041;-68
2021/12/01 03:03:47;;;;;;;6.20;1.85;;;8.70;99.90;;;;;;5010338;28;20037;-68
2021/12/01 03:06:13;;;;;;;3.13;1.27;;;8.70;99.90;;;;;;5010587;28;20521;-69
2021/12/01 03:08:45;;;;;;;3.25;1.52;;;8.80;99.90;;;;;;5008117;28;20030;-68
2021/12/01 03:11:11;;;;;;;4.90;1.88;;;8.80;99.90;;;;;;5012553;28;20350;-69
2021/12/01 03:13:37;;;;;;;4.10;1.50;;;8.70;99.90;;;;;;5004691;28;20030;-68
2021/12/01 03:16:03;;;;;;;4.10;1.52;;;8.70;99.90;;;;;;5007047;28;20129;-68
2021/12/01 03:18:28;;;;;;;3.40;1.80;;;8.70;99.90;;;;;;5010119;28;20410;-68
2021/12/01 03:20:55;;;;;;;6.32;1.88;;;8.70;99.90;;;;;;5015764;28;20379;-68
2021/12/01 03:23:21;;;;;;;3.33;1.30;;;8.70;99.90;;;;;;5014935;28;20029;-68
2021/12/01 03:25:47;;;;;;;8.80;2.03;;;8.70;99.90;;;;;;5005965;28;20037;-68
2021/12/01 03:28:14;;;;;;;5.07;1.77;;;8.70;99.90;;;;;;5009657;28;20037;-68
2021/12/01 03:30:40;;;;;;;6.20;2.35;;;8.70;99.90;;;;;;5001288;28;20022;-68
2021/12/01 03:33:16;;;;;;;5.78;2.13;;;8.60;99.90;;;;;;5005597;28;20390;-68
2021/12/01 03:35:45;;;;;;;8.25;3.25;;;8.60;99.90;;;;;;5006319;28;20481;-68
2021/12/01 03:38:11;;;;;;;4.45;2.00;;;8.60;99.90;;;;;;5011882;28;20033;-68
2021/12/01 03:40:37;;;;;;;8.80;3.63;;;8.50;99.90;;;;;;5012474;28;20123;-68
2021/12/01 03:43:03;;;;;;;4.82;2.05;;;8.50;99.90;;;;;;5006699;28;20113;-68
2021/12/01 03:45:29;;;;;;;6.75;2.80;;;8.50;99.90;;;;;;4999938;28;20109;-68
2021/12/01 03:47:55;;;;;;;5.32;2.55;;;8.40;99.90;;;;;;5006900;28;20026;-68
2021/12/01 03:50:21;;;;;;;6.63;2.40;;;8.40;99.90;;;;;;5001423;28;20026;-69
2021/12/01 03:52:47;;;;;;;4.40;1.80;;;8.50;99.90;;;;;;5002407;28;20029;-68
2021/12/01 03:55:12;;;;;;;4.53;2.08;;;8.40;99.90;;;;;;5008733;28;20022;-68
2021/12/01 03:57:39;;;;;;;7.68;3.25;;;8.40;99.90;;;;;;5010555;28;20021;-68
2021/12/01 04:00:08;;;;;;;10.65;2.13;;;8.30;99.90;;;;;;5007481;28;20037;-68
2021/12/01 04:02:34;;;;;;;4.25;2.03;;;8.30;99.90;;;;;;5012199;28;20045;-68
2021/12/01 04:04:59;;;;;;;6.50;2.08;;;8.30;99.90;;;;;;5006474;28;20117;-68
2021/12/01 04:07:25;;;;;;;6.22;2.17;;;8.30;99.90;;;;;;5008740;28;20049;-68
2021/12/01 04:09:51;;;;;;;4.47;1.85;;;8.30;99.90;;;;;;5005633;28;20430;-68
2021/12/01 04:12:17;;;;;;;3.25;1.52;;;8.30;99.90;;;;;;5008159;28;20041;-68
2021/12/01 04:14:44;;;;;;;2.67;1.17;;;8.30;99.90;;;;;;4995934;28;20030;-68
2021/12/01 04:17:09;;;;;;;5.90;2.33;;;8.20;99.90;;;;;;5008412;28;20026;-68
2021/12/01 04:19:35;;;;;;;4.50;1.48;;;8.20;99.90;;;;;;5001489;28;20075;-68
2021/12/01 04:22:01;;;;;;;4.40;1.95;;;8.20;99.90;;;;;;4999481;28;20453;-68
2021/12/01 04:24:27;;;;;;;4.82;1.67;;;8.20;99.90;;;;;;5008128;28;20500;-68
2021/12/01 04:26:53;;;;;;;6.72;1.60;;;8.20;99.90;;;;;;5008242;28;20149;-68
2021/12/01 04:29:18;;;;;;;8.73;2.35;;;8.20;99.90;;;;;;5007410;28;20101;-68
2021/12/01 04:31:44;;;;;;;3.42;1.52;;;8.10;99.90;;;;;;5003798;28;20026;-68
2021/12/01 04:34:10;;;;;;;6.53;2.30;;;8.10;99.90;;;;;;5013426;28;20026;-68
2021/12/01 04:36:39;;;;;;;6.53;1.77;;;8.10;99.90;;;;;;5015286;28;20390;-68
2021/12/01 04:39:08;;;;;;;3.35;1.23;;;8.10;99.90;;;;;;4995221;28;20117;-68
2021/12/01 04:42:08;;;;;;;1.60;0.90;;;8.10;99.90;;;;;;5004928;28;20026;-69
2021/12/01 04:44:26;;;;;;;4.57;1.67;;;8.00;99.90;;;;;;5015210;28;20034;-69
2021/12/01 04:46:56;;;;;;;1.35;0.90;;;8.00;99.90;;;;;;5017415;28;20483;-69
2021/12/01 04:49:23;;;;;;;3.17;1.27;;;8.00;99.90;;;;;;5025088;28;20017;-69
2021/12/01 04:51:54;;;;;;;5.45;2.17;;;8.00;99.90;;;;;;5020103;28;20034;-69
2021/12/01 04:54:20;;;;;;;3.65;1.70;;;7.90;99.90;;;;;;5008023;28;20149;-68
2021/12/01 04:56:47;;;;;;;2.90;1.25;;;8.00;99.90;;;;;;5015905;28;20042;-69
2021/12/01 04:59:13;;;;;;;3.95;1.30;;;8.00;99.90;;;;;;5037217;28;20067;-69
2021/12/01 05:01:40;;;;;;;3.53;1.35;;;7.90;99.90;;;;;;5019152;28;20575;-68
2021/12/01 05:04:07;;;;;;;2.33;1.38;;;7.90;99.90;;;;;;5010459;28;20052;-68
2021/12/01 05:06:32;;;;;;;4.88;1.50;;;7.90;99.90;;;;;;5015882;28;20030;-69
2021/12/01 05:08:58;;;;;;;4.57;1.50;;;7.90;99.90;;;;;;5015939;28;20370;-69
2021/12/01 05:11:25;;;;;;;1.88;0.90;;;7.90;99.90;;;;;;5016562;28;20030;-69
2021/12/01 05:13:51;;;;;;;4.88;1.98;;;7.90;99.90;;;;;;5023613;28;20018;-69
2021/12/01 05:16:16;;;;;;;5.18;1.92;;;7.90;99.90;;;;;;5021802;28;20449;-70
2021/12/01 05:18:42;;;;;;;4.88;1.65;;;7.90;99.90;;;;;;5022370;28;20038;-69
2021/12/01 05:21:08;;;;;;;5.60;2.63;;;7.90;99.90;;;;;;5011792;28;20061;-69
2021/12/01 05:23:34;;;;;;;2.38;1.10;;;8.00;99.90;;;;;;5001608;28;20022;-69
2021/12/01 05:25:59;;;;;;;3.88;1.58;;;8.00;99.90;;;;;;5011936;28;20112;-69
2021/12/01 05:28:25;;;;;;;4.70;1.95;;;7.90;99.90;;;;;;5020971;28;20030;-69
2021/12/01 05:30:51;;;;;;;6.13;2.45;;;8.00;99.90;;;;;;5023613;28;20036;-70
2021/12/01 05:33:16;;;;;;;9.43;2.45;;;8.00;99.90;;;;;;5021040;28;20030;-69
2021/12/01 05:35:43;;;;;;;4.80;1.85;;;8.00;99.90;;;;;;5022185;28;20065;-69
2021/12/01 05:38:09;;;;;;;3.33;1.63;;;8.00;99.90;;;;;;5015660;28;20021;-69
2021/12/01 05:40:35;;;;;;;6.53;2.03;;;8.00;99.90;;;;;;5014970;28;20056;-69
2021/12/01 05:43:01;;;;;;;12.32;2.42;;;8.00;99.90;;;;;;5017550;28;20040;-69
2021/12/01 05:45:27;;;;;;;4.43;1.98;;;8.00;99.90;;;;;;5020202;28;20032;-69
2021/12/01 05:47:52;;;;;;;5.10;2.00;;;8.00;99.90;;;;;;5023620;28;20080;-69
2021/12/01 05:50:18;;;;;;;5.15;1.67;;;8.00;99.90;;;;;;5023182;28;20025;-69
2021/12/01 05:52:44;;;;;;;2.78;1.15;;;8.00;99.90;;;;;;5019065;28;20101;-69
2021/12/01 05:55:10;;;;;;;3.63;1.42;;;8.00;99.90;;;;;;5016962;28;20025;-69
2021/12/01 05:57:37;;;;;;;8.02;3.30;;;8.00;99.90;;;;;;5017939;28;20021;-69
2021/12/01 06:00:09;;;;;;;4.25;1.45;;;8.10;99.90;;;;;;5018068;28;20080;-69
2021/12/01 06:02:35;;;;;;;4.07;1.92;;;8.00;99.90;;;;;;4996034;28;20054;-69
2021/12/01 06:05:01;;;;;;;4.32;1.58;;;8.10;99.90;;;;;;5005803;28;20018;-69
2021/12/01 06:07:26;;;;;;;4.82;1.88;;;8.00;99.90;;;;;;5020071;28;20437;-69
2021/12/01 06:09:52;;;;;;;4.88;1.55;;;8.00;99.90;;;;;;5014291;28;20413;-69
2021/12/01 06:12:18;;;;;;;4.32;1.55;;;8.10;99.90;;;;;;5019704;28;20048;-69
2021/12/01 06:14:45;;;;;;;5.57;1.90;;;8.10;99.90;;;;;;5018031;28;20490;-69
2021/12/01 06:17:13;;;;;;;3.25;1.52;;;8.00;99.90;;;;;;5020985;28;20018;-69
2021/12/01 06:19:40;;;;;;;3.67;1.50;;;8.00;99.90;;;;;;5020182;28;20091;-69
2021/12/01 06:22:06;;;;;;;3.50;1.45;;;8.00;99.90;;;;;;5018947;28;20041;-69
2021/12/01 06:24:32;;;;;;;4.50;1.75;;;7.90;99.90;;;;;;5001884;28;20027;-69
2021/12/01 06:26:58;;;;;;;2.67;1.15;;;7.90;99.90;;;;;;5000154;28;20026;-69
2021/12/01 06:29:24;;;;;;;3.30;1.60;;;7.90;99.90;;;;;;5012329;28;20030;-69
2021/12/01 06:31:50;;;;;;;2.60;1.27;;;7.90;99.90;;;;;;5009659;28;20057;-69
2021/12/01 06:34:16;;;;;;;4.05;1.45;;;7.90;99.90;;;;;;5018359;28;20025;-69
2021/12/01 06:36:41;;;;;;;3.90;1.52;;;7.90;99.90;;;;;;5002479;28;20026;-69
2021/12/01 06:39:08;;;;;;;3.60;1.50;;;7.90;99.90;;;;;;5001977;28;20021;-69
2021/12/01 06:41:34;;;;;;;4.25;1.67;;;7.90;99.90;;;;;;5000179;28;20030;-69
2021/12/01 06:44:00;;;;;;;2.70;1.17;;;7.90;99.90;;;;;;4996817;28;20037;-69
2021/12/01 06:46:28;;;;;;;1.88;1.02;;;7.80;99.90;;;;;;5000616;28;20058;-69
2021/12/01 06:48:54;;;;;;;2.33;1.13;;;7.80;99.90;;;;;;5006628;28;20026;-70
2021/12/01 06:51:19;;;;;;;3.22;1.30;;;7.80;99.90;;;;;;5003032;28;20426;-69
2021/12/01 06:53:45;;;;;;;4.32;1.50;;;7.70;99.90;;;;;;5013102;28;20419;-69
2021/12/01 06:56:11;;;;;;;4.05;1.40;;;7.70;99.90;;;;;;5001935;28;20029;-69
2021/12/01 06:58:37;;;;;;;2.53;1.02;;;7.70;99.90;;;;;;5015683;28;20333;-69
2021/12/01 07:01:06;;;;;;;4.50;1.92;;;7.70;99.90;;;;;;5026431;28;20398;-69
2021/12/01 07:03:33;;;;;;;3.53;1.10;;;7.70;99.90;;;;;;5003666;28;20022;-69
2021/12/01 07:05:58;;;;;;;3.40;1.58;;;7.70;99.90;;;;;;5010639;28;20026;-70
2021/12/01 07:08:24;;;;;;;5.05;1.80;;;7.70;99.90;;;;;;5013031;28;20033;-70
2021/12/01 07:10:50;;;;;;;2.13;1.00;;;7.70;99.90;;;;;;5002958;28;20034;-69
2021/12/01 07:13:15;;;;;;;3.92;1.77;;;7.60;99.90;;;;;;5007354;28;20036;-69
2021/12/01 07:15:41;;;;;;;2.28;1.08;;;7.60;99.90;;;;;;5002866;28;20022;-69
2021/12/01 07:18:08;;;;;;;3.17;1.25;;;7.60;99.90;;;;;;5010982;28;20446;-69
2021/12/01 07:20:34;;;;;;;2.05;1.08;;;7.50;99.90;;;;;;5007134;28;20026;-69
2021/12/01 07:23:01;;;;;;;3.75;1.70;;;7.50;99.90;;;;;;5003909;28;20381;-69
2021/12/01 07:25:26;;;;;;;3.03;1.17;;;7.50;99.90;;;;;;5001342;28;20046;-69
2021/12/01 07:27:52;;;;;;;1.73;1.08;;;7.40;99.90;;;;;;5001900;28;20070;-69
2021/12/01 07:30:18;;;;;;;1.60;0.90;;;7.40;99.90;;;;;;5006464;28;20033;-69
2021/12/01 07:32:43;;;;;;;2.63;1.08;;;7.40;99.90;;;;;;5008943;28;20566;-68
2021/12/01 07:35:09;;;;;;;2.75;1.08;;;7.40;99.90;;;;;;5002550;28;20543;-68
2021/12/01 07:37:35;;;;;;;4.60;1.63;;;7.40;99.90;;;;;;4992660;28;20049;-68
2021/12/01 07:40:01;;;;;;;2.40;1.13;;;7.40;99.90;;;;;;4993393;28;20116;-68
2021/12/01 07:42:26;;;;;;;4.25;1.52;;;7.40;99.90;;;;;;5006309;28;20065;-68
2021/12/01 07:44:52;;;;;;;2.72;1.20;;;7.40;99.90;;;;;;5007291;28;20034;-68
2021/12/01 07:47:18;;;;;;;3.10;1.23;;;7.40;99.90;;;;;;5005909;28;20028;-68
2021/12/01 07:49:43;;;;;;;1.52;1.05;;;7.40;99.90;;;;;;5005909;28;20033;-68
2021/12/01 07:52:09;;;;;;;3.78;1.23;;;7.40;99.90;;;;;;5005265;28;20042;-68
2021/12/01 07:54:36;;;;;;;2.00;1.10;;;7.40;99.90;;;;;;5006101;28;20040;-68
2021/12/01 07:57:02;;;;;;;1.52;0.93;;;7.40;99.90;;;;;;5007403;28;20022;-68
2021/12/01 07:59:29;;;;;;;2.15;1.00;;;7.40;99.90;;;;;;5010717;28;20415;-68
2021/12/01 08:01:55;;;;;;;2.10;1.20;;;7.40;99.90;;;;;;5007650;28;20501;-68
2021/12/01 08:04:20;;;;;;;2.00;0.90;;;7.40;99.90;;;;;;5008249;28;20018;-68
2021/12/01 08:06:46;;;;;;;1.88;0.95;;;7.40;99.90;;;;;;5016591;28;20089;-68
2021/12/01 08:09:12;;;;;;;1.08;0.88;;;7.40;99.90;;;;;;5004471;28;20037;-68
2021/12/01 08:11:39;;;;;;;1.75;1.00;;;7.40;99.90;;;;;;5009958;28;20042;-68
2021/12/01 08:14:06;;;;;;;1.23;0.70;;;7.40;99.90;;;;;;5010587;28;20025;-68
2021/12/01 08:16:36;;;;;;;1.23;0.70;;;7.40;99.90;;;;;;5008987;28;20036;-68
2021/12/01 08:19:02;;;;;;;1.97;1.00;;;7.40;99.90;;;;;;5005643;28;20034;-68
2021/12/01 08:21:28;;;;;;;3.05;1.38;;;7.40;99.90;;;;;;5013004;28;20276;-68
2021/12/01 08:23:54;;;;;;;4.32;1.15;;;7.40;99.90;;;;;;5009105;28;20079;-68
2021/12/01 08:26:21;;;;;;;3.85;1.13;;;7.40;99.90;;;;;;5008429;28;20109;-68
2021/12/01 08:28:47;;;;;;;1.33;0.90;;;7.40;99.90;;;;;;5010418;28;20037;-68
2021/12/01 08:31:14;;;;;;;0.80;0.80;;;7.40;99.90;;;;;;5011597;28;20029;-68
2021/12/01 08:33:40;;;;;;;1.58;0.95;;;7.40;99.90;;;;;;5006109;28;20025;-68
2021/12/01 08:36:06;;;;;;;1.60;0.80;;;7.40;99.90;;;;;;5006375;28;20053;-68
2021/12/01 08:38:32;;;;;;;1.73;1.02;;;7.40;99.90;;;;;;5007381;28;20026;-68
2021/12/01 08:40:59;;;;;;;1.00;0.80;;;7.40;99.90;;;;;;5008240;28;20030;-68
2021/12/01 08:43:24;;;;;;;0.73;0.70;;;7.50;99.90;;;;;;5005629;28;20034;-68
2021/12/01 08:45:50;;;;;;;1.38;0.70;;;7.50;99.90;;;;;;5005267;28;20030;-68
2021/12/01 08:48:16;;;;;;;5.10;1.20;;;7.60;99.90;;;;;;5009400;28;20086;-68
2021/12/01 08:50:42;;;;;;;1.70;1.05;;;7.60;99.90;;;;;;5005559;28;20137;-68
2021/12/01 08:53:08;;;;;;;2.05;1.08;;;7.60;99.90;;;;;;5005644;28;20501;-68
2021/12/01 08:55:34;;;;;;;4.22;0.93;;;7.60;99.90;;;;;;5006975;28;20053;-68
2021/12/01 08:58:01;;;;;;;1.52;0.90;;;7.60;99.90;;;;;;5007146;28;20056;-68
2021/12/01 09:00:28;;;;;;;2.88;1.30;;;7.60;99.90;;;;;;5006484;28;20117;-68
2021/12/01 09:02:53;;;;;;;5.63;1.13;;;7.60;99.90;;;;;;5006064;28;20092;-68
2021/12/01 09:05:19;;;;;;;2.53;1.15;;;7.60;99.90;;;;;;5006278;28;20425;-68
2021/12/01 09:07:45;;;;;;;2.05;1.08;;;7.60;99.90;;;;;;5004697;28;20057;-68
2021/12/01 09:10:11;;;;;;;1.10;0.70;;;7.60;99.90;;;;;;5007723;28;20437;-68
2021/12/01 09:12:38;;;;;;;2.38;1.10;;;7.60;99.90;;;;;;5006437;28;20457;-68
2021/12/01 09:15:04;;;;;;;2.38;0.93;;;7.70;99.90;;;;;;5004194;28;20092;-68
2021/12/01 09:17:30;;;;;;;1.67;1.00;;;7.70;99.90;;;;;;5010293;28;20026;-68
2021/12/01 09:19:55;;;;;;;3.17;0.80;;;7.70;99.90;;;;;;5009514;28;20030;-68
2021/12/01 09:22:21;;;;;;;2.05;1.00;;;7.80;99.90;;;;;;5008478;28;20577;-68
2021/12/01 09:24:48;;;;;;;2.47;0.90;;;7.80;99.90;;;;;;5003388;28;20055;-68
2021/12/01 09:27:15;;;;;;;1.17;0.85;;;7.80;99.90;;;;;;5004745;28;20765;-68
2021/12/01 09:29:41;;;;;;;2.03;0.93;;;7.80;99.90;;;;;;5009848;28;20478;-68
2021/12/01 09:32:07;;;;;;;0.80;0.80;;;7.80;99.90;;;;;;5006139;28;20183;-68
2021/12/01 09:34:33;;;;;;;2.00;0.80;;;7.80;99.90;;;;;;5002940;28;20026;-68
2021/12/01 09:36:59;;;;;;;2.60;1.08;;;7.80;99.90;;;;;;5009759;28;20032;-68
2021/12/01 09:39:25;;;;;;;2.03;1.00;;;7.80;99.90;;;;;;5011895;28;20060;-68
2021/12/01 09:41:51;;;;;;;0.77;0.70;;;7.90;99.90;;;;;;5007191;28;20042;-68
2021/12/01 09:44:18;;;;;;;1.10;0.80;;;7.90;99.90;;;;;;5004121;28;20112;-68
2021/12/01 09:46:44;;;;;;;0.90;0.80;;;7.80;99.90;;;;;;5009576;28;20115;-68
2021/12/01 09:49:10;;;;;;;1.58;0.90;;;7.90;99.90;;;;;;5001390;28;20094;-68
2021/12/01 09:51:36;;;;;;;1.70;1.00;;;7.90;99.90;;;;;;5014233;28;20034;-68
2021/12/01 09:54:03;;;;;;;0.70;0.70;;;7.90;99.90;;;;;;5009326;28;20772;-69
2021/12/01 09:56:30;;;;;;;0.75;0.68;;;8.00;99.90;;;;;;5005979;28;20045;-69
2021/12/01 09:58:57;;;;;;;1.52;0.95;;;8.00;99.90;;;;;;5003016;28;20034;-68
2021/12/01 10:01:25;;;;;;;2.80;1.10;;;8.80;99.90;;;;;;5013912;28;20057;-68
2021/12/01 10:03:51;;;;;;;3.28;1.02;;;8.00;99.90;;;;;;5007202;28;20383;-68
2021/12/01 10:06:22;;;;;;;4.00;0.95;;;8.00;99.90;;;;;;5008375;28;20022;-68
2021/12/01 10:08:57;;;;;;;1.90;0.90;;;8.00;99.90;;;;;;5008184;28;20032;-68
2021/12/01 10:11:28;;;;;;;1.15;0.80;;;8.10;99.90;;;;;;5010272;28;20440;-68
2021/12/01 10:14:05;;;;;;;1.20;0.80;;;8.10;99.90;;;;;;5008978;28;20056;-68
2021/12/01 10:16:36;;;;;;;2.45;1.10;;;8.20;99.90;;;;;;5005739;28;20029;-68
2021/12/01 10:19:05;;;;;;;1.25;0.70;;;8.20;99.90;;;;;;5009602;28;20101;-68
2021/12/01 10:21:39;;;;;;;1.13;0.80;;;8.20;99.90;;;;;;5007908;28;20497;-68
2021/12/01 10:24:16;;;;;;;2.05;1.08;;;8.20;99.90;;;;;;5010338;28;20403;-68
2021/12/01 10:26:46;;;;;;;1.75;1.00;;;8.20;99.90;;;;;;5008747;28;20049;-68
2021/12/01 10:29:15;;;;;;;0.88;0.70;;;8.20;99.90;;;;;;5007607;28;20036;-68
2021/12/01 10:31:40;;;;;;;2.25;0.85;;;8.20;99.90;;;;;;5010134;28;20046;-68
2021/12/01 10:34:32;;;;;;;2.55;0.90;;;8.20;99.90;;;;;;5009354;28;20034;-68
2021/12/01 10:37:14;;;;;;;1.58;0.90;;;8.20;99.90;;;;;;5012278;28;20532;-68
2021/12/01 10:39:48;;;;;;;0.98;0.80;;;8.20;99.90;;;;;;5008386;28;20105;-68
2021/12/01 10:42:16;;;;;;;2.03;1.27;;;8.20;99.90;;;;;;5006109;28;20100;-68
2021/12/01 10:45:02;;;;;;;1.58;0.90;;;8.20;99.90;;;;;;5006079;28;20029;-68
2021/12/01 10:47:40;;;;;;;2.33;0.90;;;8.20;99.90;;;;;;5006359;28;20473;-68
2021/12/01 10:50:09;;;;;;;1.70;0.82;;;8.30;99.90;;;;;;5007463;28;20113;-68
2021/12/01 10:52:41;;;;;;;2.83;1.10;;;8.30;99.90;;;;;;5008463;28;20041;-68
2021/12/01 10:55:14;;;;;;;0.90;0.75;;;8.30;99.90;;;;;;5009142;28;20057;-68
2021/12/01 10:57:49;;;;;;;1.45;0.82;;;8.30;99.90;;;;;;5007876;28;20559;-68
2021/12/01 11:00:22;;;;;;;3.25;1.23;;;8.30;99.90;;;;;;5004843;28;20371;-69
2021/12/01 11:02:48;;;;;;;1.95;0.98;;;8.20;99.90;;;;;;5009730;28;20041;-68
2021/12/01 11:05:25;;;;;;;1.75;0.82;;;8.20;99.90;;;;;;5008764;28;20070;-68
2021/12/01 11:07:50;;;;;;;2.72;1.13;;;8.20;99.90;;;;;;5004221;28;20038;-68
2021/12/01 11:10:20;;;;;;;1.95;0.98;;;8.30;99.90;;;;;;5010190;28;20030;-69
2021/12/01 11:12:54;;;;;;;1.95;1.00;;;8.30;99.90;;;;;;5013689;28;20037;-69
2021/12/01 11:15:29;;;;;;;1.17;0.90;;;8.30;99.90;;;;;;5012753;28;20030;-69
2021/12/01 11:17:55;;;;;;;3.53;1.10;;;8.20;99.90;;;;;;5009301;28;20498;-69
2021/12/01 11:20:41;;;;;;;1.42;0.70;;;8.30;99.90;;;;;;5010930;28;20030;-69
2021/12/01 11:23:06;;;;;;;0.80;0.70;;;8.30;99.90;;;;;;5015142;28;20034;-69
2021/12/01 11:25:35;;;;;;;3.35;1.20;;;8.30;99.90;;;;;;5007234;28;20498;-68
2021/12/01 11:28:02;;;;;;;2.33;1.00;;;8.30;99.90;;;;;;5009961;28;20030;-69
2021/12/01 11:30:27;;;;;;;1.73;0.93;;;8.40;99.90;;;;;;5012803;28;20030;-69
2021/12/01 11:32:53;;;;;;;2.67;1.33;;;8.40;99.90;;;;;;5012452;28;20076;-69
2021/12/01 11:35:19;;;;;;;1.90;0.90;;;8.40;99.90;;;;;;5009203;28;20516;-69
2021/12/01 11:37:47;;;;;;;2.10;1.00;;;8.40;99.90;;;;;;5011140;28;20037;-69
2021/12/01 11:40:13;;;;;;;2.92;1.38;;;8.50;99.90;;;;;;5010129;28;20040;-69
2021/12/01 11:42:39;;;;;;;2.38;1.15;;;8.40;99.90;;;;;;5010746;28;20025;-69
2021/12/01 11:45:05;;;;;;;1.80;1.08;;;8.50;99.90;;;;;;5010497;28;20029;-69
2021/12/01 11:47:31;;;;;;;1.75;0.90;;;8.50;99.90;;;;;;5008700;28;20113;-69
2021/12/01 11:50:01;;;;;;;1.60;0.70;;;8.50;99.90;;;;;;5011217;28;20474;-69
2021/12/01 11:52:41;;;;;;;2.38;1.17;;;8.50;99.90;;;;;;5006422;28;20800;-69
2021/12/01 11:55:07;;;;;;;3.03;1.25;;;8.50;99.90;;;;;;4998348;28;20114;-69
2021/12/01 11:57:40;;;;;;;3.35;1.30;;;8.50;99.90;;;;;;5009643;28;20101;-69
2021/12/01 12:00:06;;;;;;;1.33;0.85;;;8.50;99.90;;;;;;5006860;28;20018;-69
2021/12/01 12:02:33;;;;;;;3.40;1.27;;;8.50;99.90;;;;;;5008863;28;20132;-69
2021/12/01 12:04:59;;;;;;;3.38;1.38;;;8.50;99.90;;;;;;5006249;28;20037;-69
2021/12/01 12:07:25;;;;;;;1.67;1.15;;;8.50;99.90;;;;;;5008175;28;20125;-69
2021/12/01 12:10:17;;;;;;;0.65;0.65;;;8.50;99.90;;;;;;5010811;28;20546;-69
2021/12/01 12:13:04;;;;;;;2.22;1.08;;;8.50;99.90;;;;;;5008933;28;20034;-69
2021/12/01 12:15:47;;;;;;;1.77;1.42;;;8.60;99.90;;;;;;5008602;28;20025;-69
2021/12/01 12:18:33;;;;;;;1.08;0.80;;;8.60;99.90;;;;;;5009460;28;20504;-69
2021/12/01 12:21:37;;;;;;;1.15;0.80;;;8.60;99.90;;;;;;5008347;28;20109;-69
2021/12/01 12:24:05;;;;;;;1.90;1.00;;;8.60;99.90;;;;;;5007953;28;20030;-69
2021/12/01 12:26:51;;;;;;;1.88;0.98;;;8.50;99.90;;;;;;5005709;28;20034;-69
2021/12/01 12:29:24;;;;;;;1.75;1.00;;;8.50;99.90;;;;;;5007656;28;20086;-69
2021/12/01 12:31:51;;;;;;;2.15;1.23;;;8.30;99.90;;;;;;5005694;28;20390;-69
2021/12/01 12:34:22;;;;;;;4.25;1.52;;;8.20;99.90;;;;;;5001922;28;20111;-69
2021/12/01 12:36:48;;;;;;;2.72;1.13;;;8.00;99.90;;;;;;5004387;28;20209;-69
2021/12/01 12:39:23;;;;;;;4.95;1.42;;;7.90;99.90;;;;;;5005557;28;20250;-69
2021/12/01 12:42:09;;;;;;;2.72;1.25;;;7.90;99.90;;;;;;5007821;28;20080;-69
2021/12/01 12:44:39;;;;;;;2.28;1.02;;;7.80;99.90;;;;;;5005997;28;20080;-69
2021/12/01 12:47:07;;;;;;;1.75;1.05;;;7.80;99.90;;;;;;5005409;28;20032;-69
2021/12/01 12:49:43;;;;;;;1.83;1.10;;;7.80;99.90;;;;;;5003312;28;20041;-69
2021/12/01 12:52:37;;;;;;;4.63;1.45;;;7.80;99.90;;;;;;5006650;28;20386;-69
2021/12/01 12:55:23;;;;;;;1.65;1.00;;;7.90;99.90;;;;;;5008422;28;20022;-69
2021/12/01 12:57:58;;;;;;;2.45;1.33;;;7.90;99.90;;;;;;5000388;28;20061;-69
2021/12/01 13:00:24;;;;;;;2.38;1.08;;;7.90;99.90;;;;;;5005493;28;20018;-69
2021/12/01 13:02:50;;;;;;;1.67;0.90;;;7.90;99.90;;;;;;5007021;28;20069;-69
2021/12/01 13:05:38;;;;;;;3.08;1.25;;;7.90;99.90;;;;;;5004433;28;20555;-69
2021/12/01 13:08:39;;;;;;;1.73;0.95;;;8.00;99.90;;;;;;5006253;28;20029;-69